createdAt,value
2022-09-11T00:00:02.933Z,89.90
2022-09-11T00:01:02.922Z,78.10
2022-09-11T00:02:02.992Z,79.60
2022-09-11T00:03:02.941Z,87.50
2022-09-11T00:04:02.888Z,61.10
2022-09-11T00:05:02.898Z,66.90
2022-09-11T00:06:02.867Z,63.00
2022-09-11T00:07:02.852Z,52.10
2022-09-11T00:08:02.848Z,68.20
2022-09-11T00:09:02.833Z,54.80
2022-09-11T00:10:02.835Z,53.00
2022-09-11T00:11:02.806Z,55.00
2022-09-11T00:12:02.796Z,91.40
2022-09-11T00:13:02.785Z,71.10
2022-09-11T00:14:02.774Z,79.40
2022-09-11T00:15:02.764Z,89.50
2022-09-11T00:16:02.801Z,81.00
2022-09-11T00:17:02.739Z,92.60
2022-09-11T00:18:02.740Z,167.80
2022-09-11T00:19:02.719Z,105.00
2022-09-11T00:20:02.708Z,76.80
2022-09-11T00:21:02.719Z,92.00
2022-09-11T00:22:02.685Z,89.70
2022-09-11T00:23:02.674Z,78.50
2022-09-11T00:24:02.673Z,100.80
2022-09-11T00:25:02.658Z,120.70
2022-09-11T00:26:02.643Z,128.00
2022-09-11T00:27:02.633Z,76.60
2022-09-11T00:28:02.622Z,88.40
2022-09-11T00:29:02.657Z,92.60
2022-09-11T00:30:02.635Z,76.50
2022-09-11T00:31:02.737Z,74.70
2022-09-11T00:32:02.699Z,105.00
2022-09-11T00:33:02.732Z,64.20
2022-09-11T00:34:02.708Z,81.20
2022-09-11T00:35:02.661Z,93.20
2022-09-11T00:36:02.529Z,136.60
2022-09-11T00:37:02.538Z,90.70
2022-09-11T00:38:02.504Z,88.50
2022-09-11T00:39:02.491Z,150.60
2022-09-11T00:40:02.551Z,261.80
2022-09-11T00:41:02.477Z,165.10
2022-09-11T00:42:02.463Z,174.10
2022-09-11T00:43:02.451Z,103.10
2022-09-11T00:44:02.441Z,84.90
2022-09-11T00:45:02.427Z,84.50
2022-09-11T00:46:02.441Z,107.90
2022-09-11T00:47:02.403Z,64.70
2022-09-11T00:48:02.392Z,98.90
2022-09-11T00:49:02.391Z,228.30
2022-09-11T00:50:02.371Z,65.70
2022-09-11T00:51:02.360Z,62.90
2022-09-11T00:52:02.350Z,65.40
2022-09-11T00:53:02.358Z,116.10
2022-09-11T00:54:02.328Z,89.00
2022-09-11T00:55:02.314Z,129.10
2022-09-11T00:56:02.304Z,139.90
2022-09-11T00:57:02.290Z,125.40
2022-09-11T00:58:02.280Z,317.10
2022-09-11T00:59:02.267Z,198.90
2022-09-11T01:00:02.259Z,111.90
2022-09-11T01:01:02.402Z,91.30
2022-09-11T01:02:02.315Z,107.80
2022-09-11T01:03:02.222Z,100.80
2022-09-11T01:04:02.215Z,96.60
2022-09-11T01:05:02.199Z,80.90
2022-09-11T01:06:02.189Z,71.90
2022-09-11T01:07:02.177Z,93.10
2022-09-11T01:08:02.167Z,92.70
2022-09-11T01:09:02.179Z,111.30
2022-09-11T01:10:02.145Z,103.20
2022-09-11T01:11:02.134Z,84.30
2022-09-11T01:12:02.123Z,87.50
2022-09-11T01:13:02.108Z,127.50
2022-09-11T01:14:02.101Z,72.20
2022-09-11T01:15:02.087Z,84.50
2022-09-11T01:16:02.105Z,149.70
2022-09-11T01:17:02.067Z,156.00
2022-09-11T01:18:02.053Z,116.20
2022-09-11T01:19:02.054Z,93.10
2022-09-11T01:20:02.034Z,93.40
2022-09-11T01:21:02.019Z,114.00
2022-09-11T01:22:02.009Z,152.40
2022-09-11T01:23:01.997Z,80.20
2022-09-11T01:24:01.987Z,119.70
2022-09-11T01:25:01.997Z,71.10
2022-09-11T01:26:01.963Z,140.10
2022-09-11T01:27:01.953Z,205.10
2022-09-11T01:28:01.940Z,101.20
2022-09-11T01:29:01.928Z,113.60
2022-09-11T01:30:01.920Z,196.20
2022-09-11T01:31:01.905Z,80.70
2022-09-11T01:32:01.898Z,104.40
2022-09-11T01:33:01.894Z,125.40
2022-09-11T01:34:01.875Z,83.10
2022-09-11T01:35:01.870Z,189.40
2022-09-11T01:36:01.851Z,216.70
2022-09-11T01:37:01.837Z,89.10
2022-09-11T01:38:01.826Z,124.20
2022-09-11T01:39:01.814Z,81.10
2022-09-11T01:40:01.832Z,73.20
2022-09-11T01:41:01.816Z,69.40
2022-09-11T01:42:01.791Z,88.30
2022-09-11T01:43:01.770Z,67.50
2022-09-11T01:44:01.759Z,96.50
2022-09-11T01:45:01.748Z,87.00
2022-09-11T01:46:01.819Z,110.10
2022-09-11T01:47:01.723Z,161.80
2022-09-11T01:48:01.716Z,72.40
2022-09-11T01:49:01.702Z,79.40
2022-09-11T01:50:01.690Z,99.30
2022-09-11T01:51:01.678Z,94.50
2022-09-11T01:52:01.669Z,117.10
2022-09-11T01:53:01.655Z,198.00
2022-09-11T01:54:01.648Z,94.00
2022-09-11T01:55:01.652Z,73.00
2022-09-11T01:56:01.626Z,79.50
2022-09-11T01:57:01.635Z,92.40
2022-09-11T01:58:01.603Z,106.50
2022-09-11T01:59:01.588Z,84.10
2022-09-11T02:00:01.579Z,93.20
2022-09-11T02:01:01.589Z,135.80
2022-09-11T02:02:01.626Z,83.70
2022-09-11T02:03:01.544Z,87.00
2022-09-11T02:04:01.535Z,92.70
2022-09-11T02:05:01.520Z,136.50
2022-09-11T02:06:01.511Z,124.50
2022-09-11T02:07:01.497Z,96.30
2022-09-11T02:08:01.490Z,135.90
2022-09-11T02:09:01.478Z,94.70
2022-09-11T02:10:01.470Z,80.50
2022-09-11T02:11:01.452Z,74.60
2022-09-11T02:12:01.442Z,89.90
2022-09-11T02:13:01.455Z,100.40
2022-09-11T02:14:01.418Z,105.80
2022-09-11T02:15:01.406Z,88.30
2022-09-11T02:16:01.462Z,86.80
2022-09-11T02:17:01.385Z,84.00
2022-09-11T02:18:01.374Z,143.90
2022-09-11T02:19:01.363Z,149.10
2022-09-11T02:20:01.351Z,117.10
2022-09-11T02:21:01.339Z,88.80
2022-09-11T02:22:01.328Z,83.20
2022-09-11T02:23:01.315Z,126.60
2022-09-11T02:24:01.309Z,95.00
2022-09-11T02:25:01.295Z,76.30
2022-09-11T02:26:01.284Z,90.90
2022-09-11T02:27:01.274Z,129.00
2022-09-11T02:28:01.264Z,95.80
2022-09-11T02:29:01.277Z,110.50
2022-09-11T02:30:01.240Z,113.10
2022-09-11T02:31:01.228Z,211.50
2022-09-11T02:32:01.219Z,135.00
2022-09-11T02:33:01.204Z,104.20
2022-09-11T02:34:01.193Z,108.10
2022-09-11T02:35:01.181Z,110.20
2022-09-11T02:36:01.173Z,108.70
2022-09-11T02:37:01.159Z,85.40
2022-09-11T02:38:01.148Z,130.90
2022-09-11T02:39:01.136Z,80.30
2022-09-11T02:40:01.160Z,73.90
2022-09-11T02:41:01.114Z,76.70
2022-09-11T02:42:01.103Z,83.00
2022-09-11T02:43:01.091Z,87.80
2022-09-11T02:44:01.083Z,91.00
2022-09-11T02:45:01.090Z,92.60
2022-09-11T02:46:01.117Z,101.50
2022-09-11T02:47:01.046Z,110.00
2022-09-11T02:48:01.036Z,108.00
2022-09-11T02:49:01.024Z,100.10
2022-09-11T02:50:01.017Z,94.50
2022-09-11T02:51:00.999Z,96.80
2022-09-11T02:52:00.990Z,94.30
2022-09-11T02:53:00.976Z,91.40
2022-09-11T02:54:00.970Z,75.10
2022-09-11T02:55:00.955Z,127.50
2022-09-11T02:56:00.945Z,107.10
2022-09-11T02:57:00.934Z,111.00
2022-09-11T02:58:00.922Z,126.60
2022-09-11T02:59:00.911Z,117.80
2022-09-11T03:00:00.899Z,92.00
2022-09-11T03:01:00.987Z,87.80
2022-09-11T03:02:00.943Z,74.30
2022-09-11T03:03:00.864Z,91.60
2022-09-11T03:04:00.855Z,90.10
2022-09-11T03:05:00.841Z,84.30
2022-09-11T03:06:00.831Z,106.40
2022-09-11T03:07:00.819Z,87.40
2022-09-11T03:08:00.814Z,106.70
2022-09-11T03:09:00.795Z,69.60
2022-09-11T03:10:00.791Z,83.50
2022-09-11T03:11:00.773Z,115.70
2022-09-11T03:12:00.765Z,177.60
2022-09-11T03:13:00.759Z,83.10
2022-09-11T03:14:00.741Z,112.30
2022-09-11T03:15:00.729Z,113.40
2022-09-11T03:16:00.746Z,93.90
2022-09-11T03:17:00.726Z,205.90
2022-09-11T03:18:00.697Z,98.20
2022-09-11T03:19:00.681Z,106.40
2022-09-11T03:20:00.673Z,89.20
2022-09-11T03:21:00.659Z,79.10
2022-09-11T03:22:00.649Z,121.30
2022-09-11T03:23:00.636Z,78.10
2022-09-11T03:24:00.629Z,76.30
2022-09-11T03:25:00.623Z,110.00
2022-09-11T03:26:00.605Z,88.20
2022-09-11T03:27:00.592Z,82.30
2022-09-11T03:28:00.580Z,135.80
2022-09-11T03:29:00.569Z,126.10
2022-09-11T03:30:00.559Z,166.00
2022-09-11T03:31:00.546Z,122.80
2022-09-11T03:32:00.644Z,115.70
2022-09-11T03:33:00.547Z,109.70
2022-09-11T03:34:00.513Z,104.30
2022-09-11T03:35:00.501Z,92.80
2022-09-11T03:36:00.498Z,185.00
2022-09-11T03:37:00.481Z,163.00
2022-09-11T03:38:00.480Z,117.40
2022-09-11T03:39:00.460Z,212.00
2022-09-11T03:40:00.506Z,520.40
2022-09-11T03:41:00.435Z,611.90
2022-09-11T03:42:00.421Z,368.80
2022-09-11T03:43:00.413Z,585.70
2022-09-11T03:44:00.401Z,533.70
2022-09-11T03:45:00.390Z,421.00
2022-09-11T03:46:00.421Z,414.20
2022-09-11T03:47:00.372Z,425.10
2022-09-11T03:48:00.354Z,546.00
2022-09-11T03:49:00.366Z,487.00
2022-09-11T03:50:00.333Z,242.90
2022-09-11T03:51:00.324Z,260.30
2022-09-11T03:52:00.307Z,349.80
2022-09-11T03:53:00.301Z,383.50
2022-09-11T03:54:00.285Z,324.30
2022-09-11T03:55:00.284Z,324.20
2022-09-11T03:56:00.267Z,275.10
2022-09-11T03:57:00.253Z,542.50
2022-09-11T03:58:00.241Z,557.10
2022-09-11T03:59:00.259Z,614.90
2022-09-11T04:00:00.220Z,273.70
2022-09-11T04:01:00.287Z,288.70
2022-09-11T04:02:00.277Z,323.40
2022-09-11T04:03:00.186Z,251.90
2022-09-11T04:04:00.174Z,248.80
2022-09-11T04:05:00.198Z,508.80
2022-09-11T04:06:00.151Z,572.30
2022-09-11T04:07:00.141Z,389.70
2022-09-11T04:08:00.131Z,547.40
2022-09-11T04:09:00.130Z,529.70
2022-09-11T04:10:00.111Z,578.30
2022-09-11T04:11:00.100Z,621.10
2022-09-11T04:12:00.091Z,492.70
2022-09-11T04:13:00.073Z,372.00
2022-09-11T04:14:00.064Z,488.10
2022-09-11T04:15:00.053Z,605.60
2022-09-11T04:16:00.138Z,582.90
2022-09-11T04:17:00.031Z,460.30
2022-09-11T04:18:04.782Z,441.70
2022-09-11T04:19:00.008Z,557.60
2022-09-11T04:19:59.993Z,448.70
2022-09-11T04:21:00.011Z,527.90
2022-09-11T04:21:59.973Z,239.00
2022-09-11T04:22:59.961Z,186.70
2022-09-11T04:23:59.950Z,583.40
2022-09-11T04:24:59.940Z,698.90
2022-09-11T04:25:59.926Z,618.40
2022-09-11T04:27:00.845Z,593.40
2022-09-11T04:27:59.903Z,579.20
2022-09-11T04:28:59.892Z,588.90
2022-09-11T04:29:59.881Z,474.10
2022-09-11T04:30:59.871Z,559.30
2022-09-11T04:31:59.870Z,408.20
2022-09-11T04:32:59.849Z,334.80
2022-09-11T04:33:59.835Z,446.00
2022-09-11T04:34:59.827Z,198.00
2022-09-11T04:35:59.814Z,408.70
2022-09-11T04:36:59.835Z,241.70
2022-09-11T04:37:59.791Z,174.10
2022-09-11T04:38:59.783Z,231.10
2022-09-11T04:39:59.805Z,261.90
2022-09-11T04:40:59.761Z,307.70
2022-09-11T04:41:59.745Z,234.40
2022-09-11T04:42:59.737Z,392.10
2022-09-11T04:44:04.454Z,544.70
2022-09-11T04:44:59.713Z,794.10
2022-09-11T04:45:59.735Z,710.80
2022-09-11T04:46:59.693Z,766.80
2022-09-11T04:47:59.677Z,702.30
2022-09-11T04:48:59.673Z,742.00
2022-09-11T04:49:59.654Z,408.90
2022-09-11T04:50:59.645Z,268.00
2022-09-11T04:51:59.636Z,418.60
2022-09-11T04:52:59.647Z,679.20
2022-09-11T04:53:59.608Z,604.60
2022-09-11T04:54:59.601Z,721.20
2022-09-11T04:55:59.587Z,719.50
2022-09-11T04:56:59.578Z,659.20
2022-09-11T04:57:59.566Z,738.90
2022-09-11T04:58:59.555Z,689.10
2022-09-11T04:59:59.541Z,610.00
2022-09-11T05:00:59.586Z,689.60
2022-09-11T05:01:59.572Z,472.90
2022-09-11T05:02:59.508Z,586.50
2022-09-11T05:03:59.497Z,502.50
2022-09-11T05:04:59.486Z,573.00
2022-09-11T05:05:59.487Z,490.40
2022-09-11T05:06:59.469Z,531.10
2022-09-11T05:07:59.451Z,320.90
2022-09-11T05:08:59.468Z,628.40
2022-09-11T05:09:59.429Z,493.30
2022-09-11T05:10:59.420Z,531.10
2022-09-11T05:11:59.411Z,592.90
2022-09-11T05:12:59.395Z,543.20
2022-09-11T05:13:59.385Z,572.40
2022-09-11T05:14:59.391Z,575.10
2022-09-11T05:15:59.363Z,521.70
2022-09-11T05:16:59.351Z,575.20
2022-09-11T05:17:59.340Z,606.20
2022-09-11T05:18:59.331Z,526.90
2022-09-11T05:19:59.315Z,596.40
2022-09-11T05:20:59.310Z,497.00
2022-09-11T05:21:59.294Z,419.50
2022-09-11T05:22:59.284Z,463.60
2022-09-11T05:23:59.271Z,482.80
2022-09-11T05:24:59.286Z,484.20
2022-09-11T05:25:59.260Z,262.80
2022-09-11T05:26:59.237Z,474.80
2022-09-11T05:27:59.225Z,332.70
2022-09-11T05:28:59.213Z,272.90
2022-09-11T05:29:59.202Z,419.70
2022-09-11T05:30:59.194Z,292.50
2022-09-11T05:31:59.216Z,199.50
2022-09-11T05:32:59.170Z,356.20
2022-09-11T05:33:59.158Z,430.20
2022-09-11T05:34:59.146Z,410.70
2022-09-11T05:35:59.136Z,512.30
2022-09-11T05:36:59.123Z,340.00
2022-09-11T05:37:59.114Z,356.90
2022-09-11T05:38:59.102Z,260.40
2022-09-11T05:39:59.156Z,302.60
2022-09-11T05:40:59.103Z,207.40
2022-09-11T05:41:59.068Z,305.50
2022-09-11T05:42:59.058Z,322.30
2022-09-11T05:43:59.044Z,506.00
2022-09-11T05:44:59.031Z,413.20
2022-09-11T05:45:59.035Z,501.60
2022-09-11T05:46:59.013Z,307.30
2022-09-11T05:47:59.006Z,307.20
2022-09-11T05:48:59.008Z,367.40
2022-09-11T05:49:58.974Z,372.30
2022-09-11T05:50:58.966Z,292.50
2022-09-11T05:51:58.957Z,444.50
2022-09-11T05:52:58.945Z,409.90
2022-09-11T05:53:58.932Z,495.00
2022-09-11T05:54:58.922Z,448.50
2022-09-11T05:55:58.911Z,368.00
2022-09-11T05:56:58.928Z,410.70
2022-09-11T05:57:58.890Z,253.40
2022-09-11T05:58:58.887Z,219.50
2022-09-11T05:59:58.876Z,304.90
2022-09-11T06:00:58.890Z,334.90
2022-09-11T06:01:58.872Z,335.30
2022-09-11T06:02:58.836Z,345.80
2022-09-11T06:03:58.821Z,285.00
2022-09-11T06:04:58.815Z,320.30
2022-09-11T06:05:58.802Z,390.40
2022-09-11T06:06:58.796Z,373.70
2022-09-11T06:07:58.780Z,276.30
2022-09-11T06:08:58.770Z,367.80
2022-09-11T06:10:02.969Z,466.20
2022-09-11T06:10:58.760Z,352.10
2022-09-11T06:11:58.736Z,428.80
2022-09-11T06:12:58.747Z,333.80
2022-09-11T06:13:58.709Z,392.80
2022-09-11T06:14:58.705Z,385.70
2022-09-11T06:15:58.685Z,388.80
2022-09-11T06:16:58.723Z,370.20
2022-09-11T06:17:58.664Z,417.20
2022-09-11T06:18:58.655Z,352.30
2022-09-11T06:19:58.644Z,500.50
2022-09-11T06:20:58.629Z,430.70
2022-09-11T06:21:58.634Z,376.90
2022-09-11T06:22:58.609Z,252.80
2022-09-11T06:23:58.596Z,312.70
2022-09-11T06:24:58.586Z,308.00
2022-09-11T06:25:58.572Z,395.90
2022-09-11T06:26:58.566Z,404.00
2022-09-11T06:27:58.551Z,329.90
2022-09-11T06:28:58.562Z,538.10
2022-09-11T06:29:58.526Z,308.00
2022-09-11T06:30:58.612Z,397.30
2022-09-11T06:31:58.504Z,309.60
2022-09-11T06:32:58.516Z,306.40
2022-09-11T06:33:58.498Z,275.40
2022-09-11T06:34:58.471Z,300.10
2022-09-11T06:35:58.461Z,331.20
2022-09-11T06:36:58.448Z,220.90
2022-09-11T06:37:58.436Z,274.20
2022-09-11T06:38:58.431Z,257.80
2022-09-11T06:39:58.458Z,228.50
2022-09-11T06:40:58.403Z,292.90
2022-09-11T06:41:58.389Z,301.10
2022-09-11T06:42:58.380Z,234.50
2022-09-11T06:43:58.388Z,242.60
2022-09-11T06:44:58.394Z,211.20
2022-09-11T06:45:58.413Z,206.10
2022-09-11T06:46:58.336Z,264.50
2022-09-11T06:47:58.323Z,143.50
2022-09-11T06:48:58.313Z,195.60
2022-09-11T06:49:58.301Z,155.30
2022-09-11T06:50:58.290Z,124.70
2022-09-11T06:51:58.278Z,141.70
2022-09-11T06:52:58.266Z,135.60
2022-09-11T06:53:58.314Z,157.80
2022-09-11T06:54:58.254Z,150.80
2022-09-11T06:55:58.250Z,102.60
2022-09-11T06:56:58.230Z,132.30
2022-09-11T06:57:58.209Z,185.80
2022-09-11T06:58:58.201Z,101.80
2022-09-11T06:59:58.189Z,98.60
2022-09-11T07:00:58.295Z,131.80
2022-09-11T07:01:58.289Z,95.30
2022-09-11T07:02:58.154Z,88.30
2022-09-11T07:03:58.143Z,99.00
2022-09-11T07:04:58.131Z,83.90
2022-09-11T07:05:58.120Z,87.20
2022-09-11T07:06:58.133Z,89.80
2022-09-11T07:07:58.098Z,90.90
2022-09-11T07:08:58.088Z,77.00
2022-09-11T07:09:58.076Z,104.40
2022-09-11T07:10:58.070Z,98.50
2022-09-11T07:11:58.056Z,72.10
2022-09-11T07:12:58.051Z,61.40
2022-09-11T07:13:58.033Z,66.10
2022-09-11T07:14:58.023Z,75.10
2022-09-11T07:15:58.008Z,60.00
2022-09-11T07:16:58.021Z,57.60
2022-09-11T07:17:57.994Z,54.90
2022-09-11T07:18:58.003Z,53.50
2022-09-11T07:19:57.963Z,54.00
2022-09-11T07:20:57.953Z,48.00
2022-09-11T07:21:57.940Z,47.10
2022-09-11T07:22:57.934Z,46.30
2022-09-11T07:23:57.922Z,47.60
2022-09-11T07:24:57.906Z,38.80
2022-09-11T07:25:57.894Z,41.70
2022-09-11T07:26:57.887Z,42.40
2022-09-11T07:27:57.934Z,42.80
2022-09-11T07:28:57.878Z,38.60
2022-09-11T07:29:57.877Z,41.90
2022-09-11T07:30:57.882Z,38.70
2022-09-11T07:31:57.844Z,38.90
2022-09-11T07:32:57.876Z,35.10
2022-09-11T07:33:57.845Z,37.40
2022-09-11T07:34:57.874Z,33.70
2022-09-11T07:35:57.879Z,32.40
2022-09-11T07:36:57.899Z,35.30
2022-09-11T07:37:57.915Z,28.70
2022-09-11T07:38:57.832Z,30.80
2022-09-11T07:39:57.846Z,31.10
2022-09-11T07:40:57.764Z,29.10
2022-09-11T07:41:57.746Z,35.00
2022-09-11T07:42:57.713Z,29.20
2022-09-11T07:43:57.703Z,28.10
2022-09-11T07:44:57.694Z,27.30
2022-09-11T07:45:57.716Z,24.80
2022-09-11T07:46:57.662Z,26.40
2022-09-11T07:47:57.648Z,25.50
2022-09-11T07:48:57.659Z,22.70
2022-09-11T07:49:57.626Z,22.40
2022-09-11T07:50:57.615Z,22.60
2022-09-11T07:51:57.634Z,20.20
2022-09-11T07:52:57.623Z,22.70
2022-09-11T07:53:57.584Z,20.40
2022-09-11T07:54:57.574Z,18.70
2022-09-11T07:55:57.563Z,19.80
2022-09-11T07:56:57.552Z,20.80
2022-09-11T07:57:57.540Z,20.90
2022-09-11T07:58:57.528Z,18.40
2022-09-11T07:59:57.516Z,18.60
2022-09-11T08:00:57.544Z,17.50
2022-09-11T08:01:57.589Z,18.40
2022-09-11T08:02:57.494Z,20.30
2022-09-11T08:03:57.481Z,17.60
2022-09-11T08:04:57.486Z,15.20
2022-09-11T08:05:57.451Z,14.60
2022-09-11T08:06:57.438Z,14.40
2022-09-11T08:07:57.430Z,15.30
2022-09-11T08:08:57.416Z,15.00
2022-09-11T08:10:23.282Z,14.70
2022-09-11T08:10:58.571Z,16.70
2022-09-11T08:11:57.387Z,14.20
2022-09-11T08:12:59.816Z,14.50
2022-09-11T08:13:57.373Z,14.70
2022-09-11T08:14:58.140Z,14.30
2022-09-11T08:15:57.339Z,14.40
2022-09-11T08:16:57.328Z,13.30
2022-09-11T08:17:57.323Z,13.50
2022-09-11T08:18:57.306Z,14.50
2022-09-11T08:19:57.296Z,11.80
2022-09-11T08:20:57.308Z,13.00
2022-09-11T08:21:57.273Z,12.00
2022-09-11T08:22:58.070Z,11.40
2022-09-11T08:23:57.281Z,11.30
2022-09-11T08:24:57.257Z,11.40
2022-09-11T08:25:57.251Z,11.90
2022-09-11T08:26:57.233Z,12.80
2022-09-11T08:27:57.222Z,11.30
2022-09-11T08:28:57.202Z,10.80
2022-09-11T08:29:57.189Z,10.10
2022-09-11T08:30:57.222Z,10.80
2022-09-11T08:32:01.610Z,9.90
2022-09-11T08:32:57.154Z,10.40
2022-09-11T08:33:57.144Z,10.00
2022-09-11T08:34:57.130Z,10.20
2022-09-11T08:35:57.122Z,9.40
2022-09-11T08:36:57.132Z,10.90
2022-09-11T08:37:57.102Z,10.30
2022-09-11T08:38:57.086Z,10.40
2022-09-11T08:39:57.161Z,11.70
2022-09-11T08:40:57.067Z,9.50
2022-09-11T08:41:57.054Z,11.80
2022-09-11T08:42:57.046Z,9.80
2022-09-11T08:43:57.034Z,11.90
2022-09-11T08:44:57.019Z,9.70
2022-09-11T08:45:57.073Z,9.60
2022-09-11T08:46:57.012Z,10.10
2022-09-11T08:47:56.987Z,11.20
2022-09-11T08:48:56.977Z,10.70
2022-09-11T08:49:56.969Z,10.50
2022-09-11T08:50:56.958Z,10.90
2022-09-11T08:51:56.943Z,10.50
2022-09-11T08:52:56.954Z,9.70
2022-09-11T08:53:56.938Z,12.00
2022-09-11T08:54:56.913Z,10.30
2022-09-11T08:55:56.908Z,9.00
2022-09-11T08:56:56.899Z,10.20
2022-09-11T08:57:56.891Z,10.60
2022-09-11T08:58:56.868Z,9.70
2022-09-11T08:59:56.854Z,10.30
2022-09-11T09:00:56.864Z,9.50
2022-09-11T09:01:56.936Z,9.20
2022-09-11T09:02:56.821Z,10.20
2022-09-11T09:03:56.814Z,8.70
2022-09-11T09:04:56.806Z,9.70
2022-09-11T09:05:56.791Z,9.00
2022-09-11T09:06:56.776Z,9.40
2022-09-11T09:07:56.772Z,9.40
2022-09-11T09:08:56.795Z,9.10
2022-09-11T09:09:56.751Z,8.70
2022-09-11T09:10:56.732Z,9.90
2022-09-11T09:11:56.727Z,10.70
2022-09-11T09:12:56.716Z,9.30
2022-09-11T09:13:56.700Z,7.70
2022-09-11T09:14:56.690Z,8.00
2022-09-11T09:15:56.770Z,8.30
2022-09-11T09:16:56.673Z,7.90
2022-09-11T09:17:56.659Z,8.40
2022-09-11T09:18:56.663Z,9.10
2022-09-11T09:19:56.669Z,9.80
2022-09-11T09:20:56.621Z,8.90
2022-09-11T09:21:56.611Z,10.20
2022-09-11T09:22:56.600Z,9.90
2022-09-11T09:23:56.592Z,8.00
2022-09-11T09:24:56.603Z,8.70
2022-09-11T09:25:56.568Z,8.90
2022-09-11T09:26:56.557Z,8.40
2022-09-11T09:27:56.549Z,11.00
2022-09-11T09:28:56.535Z,9.90
2022-09-11T09:29:56.529Z,10.70
2022-09-11T09:30:56.598Z,9.40
2022-09-11T09:31:56.520Z,8.20
2022-09-11T09:32:56.515Z,8.70
2022-09-11T09:33:56.483Z,8.90
2022-09-11T09:34:56.832Z,9.70
2022-09-11T09:35:56.459Z,9.30
2022-09-11T09:36:56.448Z,9.40
2022-09-11T09:37:56.437Z,7.40
2022-09-11T09:38:56.423Z,8.20
2022-09-11T09:39:56.461Z,7.70
2022-09-11T09:40:56.427Z,7.50
2022-09-11T09:41:56.392Z,6.70
2022-09-11T09:42:56.384Z,7.70
2022-09-11T09:43:56.373Z,8.00
2022-09-11T09:44:56.432Z,8.40
2022-09-11T09:45:56.395Z,7.40
2022-09-11T09:46:56.344Z,8.10
2022-09-11T09:47:56.327Z,8.10
2022-09-11T09:48:56.313Z,7.10
2022-09-11T09:49:56.304Z,8.30
2022-09-11T09:50:56.297Z,8.00
2022-09-11T09:51:58.097Z,7.20
2022-09-11T09:52:56.267Z,7.60
2022-09-11T09:53:56.260Z,7.80
2022-09-11T09:54:56.249Z,7.50
2022-09-11T09:55:56.285Z,5.90
2022-09-11T09:56:56.266Z,7.60
2022-09-11T09:57:56.228Z,7.20
2022-09-11T09:58:56.211Z,7.40
2022-09-11T09:59:56.202Z,5.80
2022-09-11T10:00:56.189Z,6.60
2022-09-11T10:01:56.275Z,7.10
2022-09-11T10:02:56.163Z,7.00
2022-09-11T10:03:56.162Z,6.30
2022-09-11T10:04:56.955Z,5.90
2022-09-11T10:05:56.170Z,6.40
2022-09-11T10:06:56.135Z,6.30
2022-09-11T10:07:56.112Z,6.40
2022-09-11T10:08:59.053Z,7.50
2022-09-11T10:09:56.082Z,8.90
2022-09-11T10:10:56.082Z,5.70
2022-09-11T10:11:56.081Z,6.90
2022-09-11T10:13:13.046Z,5.20
2022-09-11T10:13:57.071Z,7.00
2022-09-11T10:14:56.043Z,7.30
2022-09-11T10:15:56.059Z,6.00
2022-09-11T10:16:56.026Z,6.90
2022-09-11T10:17:56.033Z,6.70
2022-09-11T10:18:55.988Z,7.10
2022-09-11T10:19:55.985Z,8.80
2022-09-11T10:20:55.984Z,8.40
2022-09-11T10:21:55.959Z,5.70
2022-09-11T10:22:55.949Z,5.10
2022-09-11T10:23:56.350Z,5.10
2022-09-11T10:24:55.924Z,5.20
2022-09-11T10:25:55.915Z,9.00
2022-09-11T10:26:55.904Z,5.20
2022-09-11T10:27:55.911Z,5.40
2022-09-11T10:28:55.908Z,5.50
2022-09-11T10:29:55.888Z,4.60
2022-09-11T10:30:55.903Z,7.60
2022-09-11T10:31:55.857Z,4.50
2022-09-11T10:32:59.006Z,4.60
2022-09-11T10:33:55.835Z,4.30
2022-09-11T10:34:55.818Z,4.30
2022-09-11T10:35:55.808Z,5.10
2022-09-11T10:36:55.801Z,4.10
2022-09-11T10:37:55.794Z,7.10
2022-09-11T10:38:55.775Z,4.70
2022-09-11T10:39:55.956Z,5.00
2022-09-11T10:40:55.808Z,5.00
2022-09-11T10:41:55.746Z,4.30
2022-09-11T10:42:55.734Z,5.60
2022-09-11T10:43:55.726Z,4.20
2022-09-11T10:44:55.731Z,5.00
2022-09-11T10:45:55.763Z,5.00
2022-09-11T10:46:55.695Z,4.20
2022-09-11T10:47:55.685Z,4.00
2022-09-11T10:48:55.674Z,4.30
2022-09-11T10:49:55.665Z,4.70
2022-09-11T10:50:55.735Z,4.80
2022-09-11T10:51:56.093Z,4.00
2022-09-11T10:52:55.629Z,3.90
2022-09-11T10:53:55.620Z,4.70
2022-09-11T10:54:55.610Z,3.70
2022-09-11T10:55:55.598Z,4.20
2022-09-11T10:56:55.736Z,4.20
2022-09-11T10:57:55.579Z,4.90
2022-09-11T10:58:55.565Z,5.20
2022-09-11T10:59:55.563Z,5.10
2022-09-11T11:00:55.573Z,3.70
2022-09-11T11:01:55.762Z,6.90
2022-09-11T11:02:55.826Z,2.90
2022-09-11T11:03:55.511Z,3.50
2022-09-11T11:04:55.504Z,3.20
2022-09-11T11:05:55.490Z,2.80
2022-09-11T11:06:55.499Z,5.40
2022-09-11T11:07:55.471Z,5.20
2022-09-11T11:08:55.460Z,4.30
2022-09-11T11:09:55.449Z,3.40
2022-09-11T11:10:55.439Z,4.30
2022-09-11T11:11:55.532Z,4.40
2022-09-11T11:12:55.675Z,3.50
2022-09-11T11:13:55.409Z,4.10
2022-09-11T11:14:55.470Z,5.10
2022-09-11T11:15:55.452Z,3.60
2022-09-11T11:16:55.403Z,3.80
2022-09-11T11:17:55.385Z,4.40
2022-09-11T11:18:55.354Z,3.40
2022-09-11T11:19:55.388Z,3.40
2022-09-11T11:20:55.331Z,3.90
2022-09-11T11:21:55.417Z,2.30
2022-09-11T11:22:55.311Z,3.20
2022-09-11T11:23:55.318Z,3.40
2022-09-11T11:24:55.668Z,2.90
2022-09-11T11:25:55.282Z,3.00
2022-09-11T11:26:55.277Z,3.10
2022-09-11T11:27:55.485Z,4.00
2022-09-11T11:28:55.471Z,5.00
2022-09-11T11:29:55.479Z,3.00
2022-09-11T11:30:55.512Z,4.30
2022-09-11T11:31:55.218Z,3.60
2022-09-11T11:32:55.230Z,3.40
2022-09-11T11:33:55.473Z,3.60
2022-09-11T11:34:55.250Z,4.90
2022-09-11T11:35:55.191Z,5.20
2022-09-11T11:36:55.160Z,3.20
2022-09-11T11:37:55.157Z,2.70
2022-09-11T11:38:55.510Z,3.80
2022-09-11T11:39:55.193Z,5.00
2022-09-11T11:40:55.122Z,3.10
2022-09-11T11:41:55.111Z,3.10
2022-09-11T11:42:56.345Z,4.00
2022-09-11T11:43:55.089Z,3.00
2022-09-11T11:44:55.107Z,3.40
2022-09-11T11:45:55.222Z,3.00
2022-09-11T11:46:55.055Z,3.40
2022-09-11T11:47:55.051Z,3.40
2022-09-11T11:48:55.060Z,2.70
2022-09-11T11:49:55.030Z,4.60
2022-09-11T11:50:55.015Z,2.50
2022-09-11T11:51:55.044Z,2.70
2022-09-11T11:52:54.993Z,2.80
2022-09-11T11:53:54.982Z,3.40
2022-09-11T11:54:54.987Z,2.50
2022-09-11T11:55:54.996Z,2.90
2022-09-11T11:56:54.948Z,3.60
2022-09-11T11:57:54.943Z,2.10
2022-09-11T11:58:54.924Z,5.50
2022-09-11T11:59:54.916Z,4.20
2022-09-11T12:00:55.496Z,2.80
2022-09-11T12:01:54.982Z,2.50
2022-09-11T12:02:54.884Z,1.90
2022-09-11T12:03:54.917Z,1.40
2022-09-11T12:04:54.884Z,2.70
2022-09-11T12:05:54.868Z,2.50
2022-09-11T12:06:54.858Z,2.60
2022-09-11T12:07:54.833Z,2.60
2022-09-11T12:08:54.829Z,2.10
2022-09-11T12:09:54.862Z,4.50
2022-09-11T12:10:54.800Z,4.20
2022-09-11T12:11:54.784Z,3.50
2022-09-11T12:12:54.775Z,5.50
2022-09-11T12:13:54.802Z,5.00
2022-09-11T12:14:54.810Z,3.80
2022-09-11T12:15:54.891Z,3.90
2022-09-11T12:16:54.756Z,4.90
2022-09-11T12:17:54.721Z,2.50
2022-09-11T12:18:54.873Z,2.70
2022-09-11T12:19:54.700Z,2.60
2022-09-11T12:20:54.713Z,5.40
2022-09-11T12:21:54.685Z,3.40
2022-09-11T12:22:54.669Z,2.40
2022-09-11T12:23:54.683Z,2.90
2022-09-11T12:24:54.650Z,3.70
2022-09-11T12:25:54.636Z,2.70
2022-09-11T12:26:54.632Z,2.50
2022-09-11T12:27:54.626Z,3.20
2022-09-11T12:28:54.611Z,3.20
2022-09-11T12:29:54.603Z,1.60
2022-09-11T12:30:54.649Z,3.30
2022-09-11T12:31:54.578Z,6.10
2022-09-11T12:32:54.584Z,5.90
2022-09-11T12:33:54.578Z,7.90
2022-09-11T12:34:54.543Z,8.20
2022-09-11T12:35:54.540Z,5.20
2022-09-11T12:36:54.556Z,6.20
2022-09-11T12:37:54.527Z,3.30
2022-09-11T12:38:54.524Z,4.40
2022-09-11T12:39:54.658Z,3.10
2022-09-11T12:40:54.618Z,4.30
2022-09-11T12:41:54.471Z,3.00
2022-09-11T12:42:54.466Z,3.90
2022-09-11T12:43:54.452Z,2.20
2022-09-11T12:44:54.447Z,4.20
2022-09-11T12:45:54.464Z,4.70
2022-09-11T12:46:54.422Z,4.70
2022-09-11T12:47:54.426Z,4.30
2022-09-11T12:49:17.889Z,6.70
2022-09-11T12:49:55.417Z,5.00